Mr Chester — WDF2686 — position and weather

sailwx.info

Track history (hours):
 
Tides and Currents Weather Stations Pressure Air Temp Water Temp Dewpoint Dewpoint Depression Visibility Wind Speed Wind Dir Waves Ship Positions

Mr Chester

Owner: Marquette Transportation Company Offshore LLC, Jefferson, LA. More information available from US FCC via Universal Licensing System and Coast Guard Vessel Documentation Center.

Last reported at 2018-Aug-15 20:33 UTC. Time now 2018-Aug-16 08:00 UTC.
Position N 32°45' W 079°53'.

Length 22 m; draft 3 m.

Type: Towing. MMSI: 367430730.

Date/timePositionNaut miles runAvg speedWind from/ knotsBaromVisibWave heightAir tempDewpointWater temp
2018-Aug-15 20:33N 32°45' W 079°53'0 7.1
2018-Aug-15 20:30N 32°46' W 079°53'1 2.0
2018-Aug-15 19:58N 32°45' W 079°54'1 2.4
2018-Aug-15 19:30N 32°46' W 079°55'4 2.4
2018-Aug-15 17:56N 32°50' W 079°57'3 6.7
2018-Aug-15 17:30N 32°47' W 079°55'2 3.9
2018-Aug-15 17:00N 32°45' W 079°54'49 7.0
2018-Aug-15 09:59N 32°08' W 080°32'6 7.8
2018-Aug-15 09:15N 32°04' W 080°37'2 8.0
2018-Aug-15 09:00N 32°03' W 080°39'4 8.0
2018-Aug-15 08:30N 31°59' W 080°41'4 8.2
2018-Aug-15 08:00N 31°56' W 080°42'  
2018-Aug-08 17:35N 32°45' W 079°52'0 6.2
2018-Aug-08 17:30N 32°45' W 079°52'1 2.5
2018-Aug-08 17:00N 32°45' W 079°54'0 0.0
2018-Aug-08 15:21N 32°45' W 079°54'0 0.6
2018-Aug-08 15:00N 32°45' W 079°54'0 0.6
2018-Aug-08 14:29N 32°45' W 079°54'0 0.1
2018-Aug-08 14:00N 32°45' W 079°54'1 1.5
2018-Aug-08 13:27N 32°46' W 079°53'1 2.0
2018-Aug-08 12:59N 32°45' W 079°52'0 0.0
2018-Aug-07 13:24N 32°45' W 079°52'3 8.5
2018-Aug-07 13:00N 32°48' W 079°55'3 4.0
2018-Aug-07 12:19N 32°50' W 079°57'0 0.0
2018-Aug-07 12:00N 32°50' W 079°57'0 0.1
2018-Aug-07 11:18N 32°50' W 079°56'1 2.8
2018-Aug-07 11:00N 32°49' W 079°56'2 3.3
2018-Aug-07 10:30N 32°48' W 079°55'2 3.4
2018-Aug-07 09:59N 32°46' W 079°55'1 0.6
2018-Aug-07 08:36N 32°45' W 079°54'0 0.1
2018-Aug-07 08:26N 32°45' W 079°54'1 2.8
2018-Aug-07 08:00N 32°46' W 079°55'4 3.7
2018-Aug-07 06:58N 32°50' W 079°57'2 4.0
2018-Aug-07 06:30N 32°49' W 079°55'3 5.4
2018-Aug-07 05:59N 32°46' W 079°53'1 0.3
2018-Aug-07 01:46N 32°45' W 079°53'0 0.8
2018-Aug-07 01:14N 32°45' W 079°52'2 0.7
2018-Aug-06 22:42N 32°45' W 079°54'2 0.1
2018-Aug-06 08:32N 32°45' W 079°52'0 5.7
2018-Aug-06 08:30N 32°45' W 079°52'2 3.3
2018-Aug-06 08:00N 32°45' W 079°54'0 0.0
2018-Aug-06 07:30N 32°45' W 079°54'0 0.0
2018-Aug-05 22:28N 32°45' W 079°54'1 2.3
2018-Aug-05 22:00N 32°46' W 079°55'3 5.7
2018-Aug-05 21:30N 32°49' W 079°55'  
Track history (hours):
 
Tides and Currents Weather Stations Pressure Air Temp Water Temp Dewpoint Dewpoint Depression Visibility Wind Speed Wind Dir Waves Ship Positions

Mr Chester

Owner: Marquette Transportation Company Offshore LLC, Jefferson, LA. More information available from US FCC via Universal Licensing System and Coast Guard Vessel Documentation Center.

Last reported at 2018-Aug-15 20:33 UTC. Time now 2018-Aug-16 08:00 UTC.
Position N 32°45' W 079°53'.

Length 22 m; draft 3 m.

Type: Towing. MMSI: 367430730.

Date/timePositionNaut miles runAvg speedWind from/ knotsBaromVisibWave heightAir tempDewpointWater temp
2018-Aug-15 20:33N 32°45' W 079°53'0 7.1
2018-Aug-15 20:30N 32°46' W 079°53'1 2.0
2018-Aug-15 19:58N 32°45' W 079°54'1 2.4
2018-Aug-15 19:30N 32°46' W 079°55'4 2.4
2018-Aug-15 17:56N 32°50' W 079°57'3 6.7
2018-Aug-15 17:30N 32°47' W 079°55'2 3.9
2018-Aug-15 17:00N 32°45' W 079°54'49 7.0
2018-Aug-15 09:59N 32°08' W 080°32'6 7.8
2018-Aug-15 09:15N 32°04' W 080°37'2 8.0
2018-Aug-15 09:00N 32°03' W 080°39'4 8.0
2018-Aug-15 08:30N 31°59' W 080°41'4 8.2
2018-Aug-15 08:00N 31°56' W 080°42'  
2018-Aug-08 17:35N 32°45' W 079°52'0 6.2
2018-Aug-08 17:30N 32°45' W 079°52'1 2.5
2018-Aug-08 17:00N 32°45' W 079°54'0 0.0
2018-Aug-08 15:21N 32°45' W 079°54'0 0.6
2018-Aug-08 15:00N 32°45' W 079°54'0 0.6
2018-Aug-08 14:29N 32°45' W 079°54'0 0.1
2018-Aug-08 14:00N 32°45' W 079°54'1 1.5
2018-Aug-08 13:27N 32°46' W 079°53'1 2.0
2018-Aug-08 12:59N 32°45' W 079°52'0 0.0
2018-Aug-07 13:24N 32°45' W 079°52'3 8.5
2018-Aug-07 13:00N 32°48' W 079°55'3 4.0
2018-Aug-07 12:19N 32°50' W 079°57'0 0.0
2018-Aug-07 12:00N 32°50' W 079°57'0 0.1
2018-Aug-07 11:18N 32°50' W 079°56'1 2.8
2018-Aug-07 11:00N 32°49' W 079°56'2 3.3
2018-Aug-07 10:30N 32°48' W 079°55'2 3.4
2018-Aug-07 09:59N 32°46' W 079°55'1 0.6
2018-Aug-07 08:36N 32°45' W 079°54'0 0.1
2018-Aug-07 08:26N 32°45' W 079°54'1 2.8
2018-Aug-07 08:00N 32°46' W 079°55'4 3.7
2018-Aug-07 06:58N 32°50' W 079°57'2 4.0
2018-Aug-07 06:30N 32°49' W 079°55'3 5.4
2018-Aug-07 05:59N 32°46' W 079°53'1 0.3
2018-Aug-07 01:46N 32°45' W 079°53'0 0.8
2018-Aug-07 01:14N 32°45' W 079°52'2 0.7
2018-Aug-06 22:42N 32°45' W 079°54'2 0.1
2018-Aug-06 08:32N 32°45' W 079°52'0 5.7
2018-Aug-06 08:30N 32°45' W 079°52'2 3.3
2018-Aug-06 08:00N 32°45' W 079°54'0 0.0
2018-Aug-06 07:30N 32°45' W 079°54'0 0.0
2018-Aug-05 22:28N 32°45' W 079°54'1 2.3
2018-Aug-05 22:00N 32°46' W 079°55'3 5.7
2018-Aug-05 21:30N 32°49' W 079°55'  

Dump ship's entire track history